createdAt,value
2016-06-24T00:00:35.652Z,22.49
2016-06-24T00:01:35.766Z,22.39
2016-06-24T00:02:35.842Z,22.38
2016-06-24T00:03:35.797Z,22.34
2016-06-24T00:04:35.937Z,22.28
2016-06-24T00:05:35.868Z,22.38
2016-06-24T00:06:36.010Z,22.23
2016-06-24T00:07:36.178Z,22.31
2016-06-24T00:08:36.018Z,22.23
2016-06-24T00:09:36.137Z,22.25
2016-06-24T00:10:36.086Z,22.2
2016-06-24T00:11:36.224Z,22.13
2016-06-24T00:12:36.262Z,22.19
2016-06-24T00:13:36.226Z,22.06
2016-06-24T00:14:36.265Z,22.09
2016-06-24T00:15:36.388Z,22.1
2016-06-24T00:16:36.387Z,22.09
2016-06-24T00:17:36.397Z,22.12
2016-06-24T00:18:36.438Z,22.01
2016-06-24T00:19:36.481Z,22.09
2016-06-24T00:20:36.673Z,21.94
2016-06-24T00:21:37.220Z,22.1
2016-06-24T00:22:36.704Z,21.97
2016-06-24T00:23:36.754Z,21.92
2016-06-24T00:24:36.775Z,21.97
2016-06-24T00:25:36.747Z,21.94
2016-06-24T00:26:36.836Z,21.91
2016-06-24T00:27:36.915Z,21.83
2016-06-24T00:28:36.882Z,21.88
2016-06-24T00:29:36.955Z,21.79
2016-06-24T00:30:36.967Z,21.88
2016-06-24T00:31:37.001Z,21.79
2016-06-24T00:32:37.043Z,21.85
2016-06-24T00:33:37.089Z,21.85
2016-06-24T00:34:37.223Z,21.76
2016-06-24T00:35:37.417Z,21.79
2016-06-24T00:36:37.221Z,21.81
2016-06-24T00:37:37.377Z,21.64
2016-06-24T00:38:37.342Z,21.57
2016-06-24T00:39:37.413Z,21.56
2016-06-24T00:40:37.387Z,21.54
2016-06-24T00:41:37.564Z,21.53
2016-06-24T00:42:37.696Z,21.5
2016-06-24T00:43:37.612Z,21.46
2016-06-24T00:44:37.581Z,21.5
2016-06-24T00:45:37.773Z,21.39
2016-06-24T00:46:37.683Z,21.36
2016-06-24T00:47:37.787Z,21.38
2016-06-24T00:48:37.903Z,21.34
2016-06-24T00:49:37.803Z,21.32
2016-06-24T00:50:37.853Z,21.38
2016-06-24T00:51:37.863Z,21.38
2016-06-24T00:52:37.910Z,21.32
2016-06-24T00:53:37.969Z,21.34
2016-06-24T00:54:38.077Z,21.29
2016-06-24T00:55:38.033Z,21.24
2016-06-24T00:56:38.082Z,21.26
2016-06-24T00:57:38.200Z,21.17
2016-06-24T00:58:38.180Z,21.14
2016-06-24T00:59:38.313Z,21.08
2016-06-24T01:00:38.298Z,21.04
2016-06-24T01:01:38.444Z,21.09
2016-06-24T01:02:38.371Z,20.96
2016-06-24T01:03:38.487Z,21.11
2016-06-24T01:04:38.528Z,21.09
2016-06-24T01:05:38.489Z,20.98
2016-06-24T01:06:38.620Z,20.77
2016-06-24T01:07:38.661Z,20.9
2016-06-24T01:08:38.608Z,20.83
2016-06-24T01:09:38.765Z,20.79
2016-06-24T01:10:38.790Z,20.87
2016-06-24T01:11:38.753Z,20.83
2016-06-24T01:12:39.123Z,20.83
2016-06-24T01:13:38.864Z,20.69
2016-06-24T01:14:38.939Z,20.71
2016-06-24T01:15:38.921Z,20.77
2016-06-24T01:16:39.120Z,20.79
2016-06-24T01:17:38.996Z,20.83
2016-06-24T01:18:39.226Z,20.81
2016-06-24T01:19:39.122Z,20.86
2016-06-24T01:20:39.135Z,20.76
2016-06-24T01:21:39.918Z,20.74
2016-06-24T01:22:39.217Z,20.8
2016-06-24T01:23:39.257Z,20.77
2016-06-24T01:24:39.361Z,20.71
2016-06-24T01:25:39.437Z,20.65
2016-06-24T01:26:39.443Z,20.69
2016-06-24T01:27:39.515Z,20.59
2016-06-24T01:28:40.156Z,20.56
2016-06-24T01:29:39.580Z,20.59
2016-06-24T01:30:39.659Z,20.54
2016-06-24T01:31:39.585Z,20.59
2016-06-24T01:32:39.731Z,20.47
2016-06-24T01:33:39.704Z,20.47
2016-06-24T01:34:39.829Z,20.41
2016-06-24T01:35:39.829Z,20.42
2016-06-24T01:36:39.813Z,20.41
2016-06-24T01:37:39.930Z,20.41
2016-06-24T01:38:39.980Z,20.41
2016-06-24T01:39:39.931Z,20.27
2016-06-24T01:40:39.988Z,20.3
2016-06-24T01:41:40.103Z,20.3
2016-06-24T01:42:40.063Z,20.39
2016-06-24T01:43:40.345Z,20.33
2016-06-24T01:44:40.242Z,20.33
2016-06-24T01:45:40.195Z,20.25
2016-06-24T01:46:40.223Z,20.31
2016-06-24T01:47:40.379Z,20.28
2016-06-24T01:48:40.304Z,20.27
2016-06-24T01:49:40.444Z,20.25
2016-06-24T01:50:40.425Z,20.21
2016-06-24T01:51:40.485Z,20.25
2016-06-24T01:52:40.494Z,20.2
2016-06-24T01:53:40.519Z,20.18
2016-06-24T01:54:40.564Z,20.18
2016-06-24T01:55:40.623Z,20.15
2016-06-24T01:56:40.691Z,20.12
2016-06-24T01:57:40.780Z,20.05
2016-06-24T01:58:40.727Z,20.08
2016-06-24T01:59:40.900Z,20.08
2016-06-24T02:00:40.919Z,20.03
2016-06-24T02:01:40.893Z,20
2016-06-24T02:02:40.940Z,20.03
2016-06-24T02:03:41.036Z,20.02
2016-06-24T02:04:40.998Z,20.06
2016-06-24T02:05:41.126Z,20.05
2016-06-24T02:06:41.335Z,20.08
2016-06-24T02:07:41.139Z,20.03
2016-06-24T02:08:41.248Z,20
2016-06-24T02:09:41.233Z,20
2016-06-24T02:10:41.343Z,20.02
2016-06-24T02:11:41.392Z,20.03
2016-06-24T02:12:41.453Z,20.02
2016-06-24T02:13:41.390Z,20.05
2016-06-24T02:14:41.549Z,20.13
2016-06-24T02:15:41.452Z,20.13
2016-06-24T02:16:41.628Z,20.16
2016-06-24T02:17:41.599Z,20.24
2016-06-24T02:18:41.582Z,20.1
2016-06-24T02:19:41.723Z,20.15
2016-06-24T02:20:41.679Z,20.09
2016-06-24T02:21:41.734Z,20.23
2016-06-24T02:22:41.762Z,20.03
2016-06-24T02:23:41.878Z,20.05
2016-06-24T02:24:41.836Z,20.05
2016-06-24T02:25:42.005Z,20.03
2016-06-24T02:26:41.934Z,20.06
2016-06-24T02:27:42.089Z,20
2016-06-24T02:28:42.092Z,20.05
2016-06-24T02:29:42.047Z,20.03
2016-06-24T02:30:42.195Z,20.03
2016-06-24T02:31:42.152Z,20.08
2016-06-24T02:32:42.309Z,20.03
2016-06-24T02:33:42.220Z,20.06
2016-06-24T02:34:42.250Z,20.05
2016-06-24T02:35:42.385Z,20.06
2016-06-24T02:36:42.350Z,20.03
2016-06-24T02:37:42.375Z,20.13
2016-06-24T02:38:42.447Z,20.03
2016-06-24T02:39:42.471Z,20.09
2016-06-24T02:40:42.597Z,20.03
2016-06-24T02:41:42.562Z,20.12
2016-06-24T02:42:42.598Z,20.06
2016-06-24T02:43:42.735Z,20
2016-06-24T02:44:42.685Z,20.03
2016-06-24T02:45:42.811Z,20.03
2016-06-24T02:46:42.988Z,20.05
2016-06-24T02:47:42.815Z,20.05
2016-06-24T02:48:42.946Z,20.02
2016-06-24T02:49:42.957Z,19.94
2016-06-24T02:50:43.031Z,19.93
2016-06-24T02:51:43.055Z,19.91
2016-06-24T02:52:43.105Z,19.87
2016-06-24T02:53:43.131Z,19.88
2016-06-24T02:54:43.100Z,19.9
2016-06-24T02:55:43.151Z,19.86
2016-06-24T02:56:43.289Z,19.87
2016-06-24T02:57:43.225Z,19.9
2016-06-24T02:58:43.400Z,19.87
2016-06-24T02:59:43.323Z,19.79
2016-06-24T03:00:43.457Z,19.87
2016-06-24T03:01:43.406Z,19.76
2016-06-24T03:02:43.550Z,19.72
2016-06-24T03:03:43.481Z,19.8
2016-06-24T03:04:43.528Z,19.68
2016-06-24T03:05:44.339Z,19.7
2016-06-24T03:06:43.726Z,19.69
2016-06-24T03:07:43.645Z,19.65
2016-06-24T03:08:43.781Z,19.6
2016-06-24T03:09:43.853Z,19.61
2016-06-24T03:10:43.870Z,19.58
2016-06-24T03:11:43.820Z,19.58
2016-06-24T03:12:43.979Z,19.51
2016-06-24T03:13:44.019Z,19.54
2016-06-24T03:14:43.954Z,19.55
2016-06-24T03:15:43.994Z,19.55
2016-06-24T03:16:44.151Z,19.54
2016-06-24T03:17:44.110Z,19.47
2016-06-24T03:18:44.206Z,19.43
2016-06-24T03:19:44.273Z,19.43
2016-06-24T03:20:44.219Z,19.42
2016-06-24T03:21:44.342Z,19.42
2016-06-24T03:22:44.383Z,19.38
2016-06-24T03:23:44.459Z,19.35
2016-06-24T03:24:44.442Z,19.38
2016-06-24T03:25:44.505Z,19.43
2016-06-24T03:26:44.473Z,19.47
2016-06-24T03:27:44.499Z,19.36
2016-06-24T03:28:44.639Z,19.38
2016-06-24T03:29:44.686Z,19.39
2016-06-24T03:30:44.623Z,19.38
2016-06-24T03:31:44.753Z,19.46
2016-06-24T03:32:44.851Z,19.35
2016-06-24T03:33:44.784Z,19.47
2016-06-24T03:34:44.898Z,19.43
2016-06-24T03:35:44.835Z,19.38
2016-06-24T03:36:44.974Z,19.4
2016-06-24T03:37:45.027Z,19.4
2016-06-24T03:38:44.963Z,19.33
2016-06-24T03:39:45.015Z,19.39
2016-06-24T03:40:45.076Z,19.4
2016-06-24T03:41:45.179Z,19.38
2016-06-24T03:42:45.226Z,19.35
2016-06-24T03:43:45.171Z,19.36
2016-06-24T03:44:45.220Z,19.38
2016-06-24T03:45:45.351Z,19.36
2016-06-24T03:46:45.581Z,19.28
2016-06-24T03:47:45.346Z,19.38
2016-06-24T03:48:45.454Z,19.36
2016-06-24T03:49:45.558Z,19.31
2016-06-24T03:50:45.553Z,19.32
2016-06-24T03:51:46.272Z,19.24
2016-06-24T03:52:45.635Z,19.28
2016-06-24T03:53:45.715Z,19.2
2016-06-24T03:54:45.745Z,19.33
2016-06-24T03:55:45.758Z,19.23
2016-06-24T03:56:45.851Z,19.32
2016-06-24T03:57:45.849Z,19.31
2016-06-24T03:58:45.911Z,19.23
2016-06-24T03:59:45.851Z,19.23
2016-06-24T04:00:46.059Z,19.17
2016-06-24T04:01:46.025Z,19.32
2016-06-24T04:02:45.989Z,19.31
2016-06-24T04:03:46.033Z,19.36
2016-06-24T04:04:46.145Z,19.35
2016-06-24T04:05:46.222Z,19.36
2016-06-24T04:06:46.240Z,19.36
2016-06-24T04:07:46.285Z,19.36
2016-06-24T04:08:46.257Z,19.35
2016-06-24T04:09:46.358Z,19.39
2016-06-24T04:10:46.315Z,19.42
2016-06-24T04:11:46.404Z,19.54
2016-06-24T04:12:46.509Z,19.55
2016-06-24T04:13:46.538Z,19.57
2016-06-24T04:14:46.575Z,19.63
2016-06-24T04:15:46.607Z,19.65
2016-06-24T04:16:46.591Z,19.65
2016-06-24T04:17:46.620Z,19.66
2016-06-24T04:18:46.752Z,19.7
2016-06-24T04:19:46.781Z,19.65
2016-06-24T04:20:46.745Z,19.68
2016-06-24T04:21:46.880Z,19.61
2016-06-24T04:22:46.819Z,19.61
2016-06-24T04:23:46.959Z,19.7
2016-06-24T04:24:46.922Z,19.7
2016-06-24T04:25:47.034Z,19.68
2016-06-24T04:26:47.006Z,19.79
2016-06-24T04:27:47.043Z,19.72
2016-06-24T04:28:47.191Z,19.79
2016-06-24T04:29:47.237Z,19.86
2016-06-24T04:30:47.240Z,19.91
2016-06-24T04:31:47.298Z,19.97
2016-06-24T04:32:47.342Z,20.06
2016-06-24T04:33:47.316Z,20.02
2016-06-24T04:34:47.405Z,20.05
2016-06-24T04:35:47.365Z,20.18
2016-06-24T04:36:47.495Z,20.27
2016-06-24T04:37:47.570Z,20.23
2016-06-24T04:38:47.498Z,20.35
2016-06-24T04:39:47.645Z,20.27
2016-06-24T04:40:47.577Z,20.38
2016-06-24T04:41:47.727Z,20.46
2016-06-24T04:42:47.687Z,20.42
2016-06-24T04:43:47.702Z,20.42
2016-06-24T04:44:47.745Z,20.54
2016-06-24T04:45:47.890Z,20.54
2016-06-24T04:46:47.829Z,20.59
2016-06-24T04:47:48.005Z,20.56
2016-06-24T04:48:47.913Z,20.59
2016-06-24T04:49:48.046Z,20.68
2016-06-24T04:50:48.092Z,20.72
2016-06-24T04:51:48.048Z,20.77
2016-06-24T04:52:48.164Z,20.76
2016-06-24T04:53:48.148Z,20.8
2016-06-24T04:54:48.167Z,20.74
2016-06-24T04:55:48.321Z,20.86
2016-06-24T04:56:48.341Z,20.86
2016-06-24T04:57:48.321Z,20.86
2016-06-24T04:58:48.349Z,20.9
2016-06-24T04:59:48.399Z,20.96
2016-06-24T05:00:48.544Z,20.95
2016-06-24T05:01:48.465Z,21.06
2016-06-24T05:02:48.608Z,21.06
2016-06-24T05:03:48.555Z,21.05
2016-06-24T05:04:48.602Z,21.06
2016-06-24T05:05:48.723Z,21.11
2016-06-24T05:06:48.675Z,21.09
2016-06-24T05:07:48.824Z,21.17
2016-06-24T05:08:48.847Z,21.14
2016-06-24T05:09:48.806Z,21.24
2016-06-24T05:10:48.933Z,21.27
2016-06-24T05:11:49.018Z,21.32
2016-06-24T05:12:49.078Z,21.23
2016-06-24T05:13:48.977Z,21.21
2016-06-24T05:14:49.250Z,21.29
2016-06-24T05:15:49.090Z,21.24
2016-06-24T05:16:49.216Z,21.34
2016-06-24T05:17:49.239Z,21.39
2016-06-24T05:18:49.195Z,21.36
2016-06-24T05:19:49.229Z,21.38
2016-06-24T05:20:49.376Z,21.34
2016-06-24T05:21:49.312Z,21.44
2016-06-24T05:22:49.475Z,21.41
2016-06-24T05:23:49.406Z,21.5
2016-06-24T05:24:49.530Z,21.5
2016-06-24T05:25:49.585Z,21.53
2016-06-24T05:26:49.541Z,21.48
2016-06-24T05:27:49.711Z,21.56
2016-06-24T05:28:49.622Z,21.59
2016-06-24T05:29:49.668Z,21.64
2016-06-24T05:30:49.713Z,21.57
2016-06-24T05:31:49.757Z,21.64
2016-06-24T05:32:49.797Z,21.64
2016-06-24T05:33:49.954Z,21.64
2016-06-24T05:34:50.919Z,21.72
2016-06-24T05:35:49.935Z,21.74
2016-06-24T05:36:51.296Z,21.81
2016-06-24T05:37:50.036Z,21.74
2016-06-24T05:38:50.049Z,21.85
2016-06-24T05:39:50.109Z,21.81
2016-06-24T05:40:50.138Z,21.81
2016-06-24T05:41:50.181Z,21.97
2016-06-24T05:42:50.233Z,21.97
2016-06-24T05:43:51.718Z,22.01
2016-06-24T05:44:50.341Z,21.95
2016-06-24T05:45:50.352Z,22.04
2016-06-24T05:46:50.664Z,22.12
2016-06-24T05:47:50.446Z,22.16
2016-06-24T05:48:51.193Z,22.23
2016-06-24T05:49:50.618Z,22.35
2016-06-24T05:50:50.590Z,22.62
2016-06-24T05:51:50.668Z,22.77
2016-06-24T05:52:50.751Z,22.97
2016-06-24T05:53:51.494Z,23.14
2016-06-24T05:54:50.752Z,23.17
2016-06-24T05:55:50.797Z,23.32
2016-06-24T05:56:50.854Z,23.49
2016-06-24T05:57:51.023Z,23.61
2016-06-24T05:58:50.930Z,23.68
2016-06-24T05:59:50.996Z,23.67
2016-06-24T06:00:51.120Z,23.76
2016-06-24T06:01:51.139Z,23.85
2016-06-24T06:02:51.115Z,23.94
2016-06-24T06:03:51.211Z,23.95
2016-06-24T06:04:51.491Z,23.95
2016-06-24T06:05:51.752Z,23.97
2016-06-24T06:06:51.875Z,23.98
2016-06-24T06:07:51.426Z,23.89
2016-06-24T06:08:52.576Z,24.02
2016-06-24T06:09:52.215Z,24.05
2016-06-24T06:10:51.548Z,24.07
2016-06-24T06:11:51.488Z,24.08
2016-06-24T06:12:52.068Z,24.13
2016-06-24T06:13:51.597Z,24.17
2016-06-24T06:14:51.619Z,24.23
2016-06-24T06:15:51.951Z,24.27
2016-06-24T06:16:51.753Z,24.24
2016-06-24T06:17:51.789Z,24.22
2016-06-24T06:18:51.812Z,24.32
2016-06-24T06:19:51.949Z,24.42
2016-06-24T06:20:52.133Z,24.26
2016-06-24T06:21:51.945Z,24.24
2016-06-24T06:22:52.151Z,24.42
2016-06-24T06:23:52.022Z,24.37
2016-06-24T06:24:52.406Z,24.31
2016-06-24T06:25:52.226Z,24.34
2016-06-24T06:26:52.355Z,24.31
2016-06-24T06:27:52.298Z,24.37
2016-06-24T06:28:52.367Z,24.44
2016-06-24T06:29:52.389Z,24.44
2016-06-24T06:30:52.336Z,24.39
2016-06-24T06:31:52.383Z,24.44
2016-06-24T06:32:52.439Z,24.54
2016-06-24T06:33:52.619Z,24.52
2016-06-24T06:34:52.819Z,24.54
2016-06-24T06:35:52.641Z,24.52
2016-06-24T06:36:52.663Z,24.5
2016-06-24T06:37:52.785Z,24.68
2016-06-24T06:38:52.693Z,24.67
2016-06-24T06:39:52.931Z,24.73
2016-06-24T06:40:53.319Z,24.69
2016-06-24T06:41:52.877Z,24.67
2016-06-24T06:42:53.007Z,24.76
2016-06-24T06:43:53.325Z,24.85
2016-06-24T06:44:53.046Z,24.75
2016-06-24T06:45:53.080Z,24.94
2016-06-24T06:46:53.855Z,24.82
2016-06-24T06:47:53.141Z,24.85
2016-06-24T06:48:53.199Z,24.91
2016-06-24T06:49:53.302Z,24.97
2016-06-24T06:50:53.690Z,24.98
2016-06-24T06:51:53.324Z,24.95
2016-06-24T06:52:53.429Z,24.97
2016-06-24T06:53:53.686Z,25.02
2016-06-24T06:54:53.427Z,25.12
2016-06-24T06:55:53.743Z,25.19
2016-06-24T06:56:53.590Z,25.15
2016-06-24T06:57:53.596Z,25.2
2016-06-24T06:58:53.835Z,25.24
2016-06-24T06:59:53.750Z,25.25
2016-06-24T07:00:53.755Z,25.19
2016-06-24T07:01:53.802Z,25.31
2016-06-24T07:02:53.992Z,25.43
2016-06-24T07:03:54.062Z,25.31
2016-06-24T07:04:54.017Z,25.43
2016-06-24T07:05:54.047Z,25.5
2016-06-24T07:06:54.023Z,25.49
2016-06-24T07:07:54.009Z,25.46
2016-06-24T07:08:54.115Z,25.53
2016-06-24T07:09:54.214Z,25.5
2016-06-24T07:10:54.137Z,25.56
2016-06-24T07:11:54.266Z,25.56
2016-06-24T07:12:54.243Z,25.57
2016-06-24T07:13:54.403Z,25.61
2016-06-24T07:14:54.396Z,25.61
2016-06-24T07:15:54.333Z,25.65
2016-06-24T07:16:54.397Z,25.62
2016-06-24T07:17:54.467Z,25.57
2016-06-24T07:18:54.643Z,25.64
2016-06-24T07:19:54.604Z,25.72
2016-06-24T07:20:54.681Z,25.71
2016-06-24T07:21:54.651Z,25.69
2016-06-24T07:22:54.734Z,25.77
2016-06-24T07:23:54.779Z,25.8
2016-06-24T07:24:54.748Z,25.82
2016-06-24T07:25:54.793Z,25.68
2016-06-24T07:26:55.045Z,25.68
2016-06-24T07:27:54.872Z,25.77
2016-06-24T07:28:55.033Z,25.74
2016-06-24T07:29:55.465Z,25.59
2016-06-24T07:30:55.030Z,25.71
2016-06-24T07:31:56.071Z,25.67
2016-06-24T07:32:55.267Z,25.69
2016-06-24T07:33:55.245Z,25.72
2016-06-24T07:34:55.239Z,25.79
2016-06-24T07:35:55.257Z,25.83
2016-06-24T07:36:55.303Z,25.82
2016-06-24T07:37:55.345Z,25.84
2016-06-24T07:38:55.388Z,25.84
2016-06-24T07:39:55.513Z,25.82
2016-06-24T07:40:55.491Z,25.86
2016-06-24T07:41:55.878Z,25.87
2016-06-24T07:42:55.730Z,25.98
2016-06-24T07:43:55.714Z,25.99
2016-06-24T07:44:55.697Z,25.97
2016-06-24T07:45:55.806Z,26.06
2016-06-24T07:46:55.871Z,26.04
2016-06-24T07:47:55.836Z,26.11
2016-06-24T07:48:55.925Z,26.15
2016-06-24T07:49:55.879Z,26.18
2016-06-24T07:50:55.985Z,26.11
2016-06-24T07:51:56.609Z,26.22
2016-06-24T07:52:56.030Z,26.25
2016-06-24T07:53:56.187Z,26.15
2016-06-24T07:54:56.113Z,26.25
2016-06-24T07:55:56.246Z,26.28
2016-06-24T07:56:56.306Z,26.32
2016-06-24T07:57:56.252Z,26.32
2016-06-24T07:58:56.396Z,26.39
2016-06-24T07:59:56.379Z,26.42
2016-06-24T08:00:56.490Z,26.47
2016-06-24T08:01:56.726Z,26.5
2016-06-24T08:02:56.584Z,26.49
2016-06-24T08:03:56.534Z,26.59
2016-06-24T08:04:56.576Z,26.67
2016-06-24T08:05:56.661Z,26.57
2016-06-24T08:06:56.770Z,26.59
2016-06-24T08:07:56.710Z,26.73
2016-06-24T08:08:56.937Z,26.69
2016-06-24T08:09:56.794Z,26.64
2016-06-24T08:10:57.038Z,26.73
2016-06-24T08:11:57.134Z,26.69
2016-06-24T08:12:56.961Z,26.74
2016-06-24T08:13:57.104Z,26.72
2016-06-24T08:14:57.139Z,26.87
2016-06-24T08:15:57.196Z,26.8
2016-06-24T08:16:57.980Z,26.94
2016-06-24T08:17:57.316Z,26.99
2016-06-24T08:18:57.303Z,27.04
2016-06-24T08:19:57.272Z,27.09
2016-06-24T08:20:57.392Z,27.04
2016-06-24T08:21:58.079Z,27.14
2016-06-24T08:22:57.902Z,27.06
2016-06-24T08:23:57.429Z,27.04
2016-06-24T08:24:57.622Z,27.14
2016-06-24T08:25:58.199Z,27.21
2016-06-24T08:26:57.676Z,27.26
2016-06-24T08:27:57.646Z,27.36
2016-06-24T08:28:57.772Z,27.32
2016-06-24T08:29:57.813Z,27.32
2016-06-24T08:30:57.923Z,27.41
2016-06-24T08:31:57.908Z,27.46
2016-06-24T08:32:58.022Z,27.31
2016-06-24T08:33:58.016Z,27.33
2016-06-24T08:34:58.047Z,27.38
2016-06-24T08:35:58.015Z,27.39
2016-06-24T08:36:58.040Z,27.48
2016-06-24T08:37:58.093Z,27.42
2016-06-24T08:38:58.134Z,27.24
2016-06-24T08:39:58.185Z,27.36
2016-06-24T08:40:58.225Z,27.43
2016-06-24T08:41:58.399Z,27.42
2016-06-24T08:42:58.357Z,27.39
2016-06-24T08:43:58.444Z,27.39
2016-06-24T08:44:58.412Z,27.32
2016-06-24T08:45:58.488Z,27.39
2016-06-24T08:46:58.500Z,27.43
2016-06-24T08:47:58.566Z,27.43
2016-06-24T08:48:58.644Z,27.39
2016-06-24T08:49:58.732Z,27.46
2016-06-24T08:50:58.704Z,27.46
2016-06-24T08:51:58.820Z,27.46
2016-06-24T08:52:58.862Z,27.39
2016-06-24T08:53:58.857Z,27.46
2016-06-24T08:54:59.222Z,27.61
2016-06-24T08:55:59.039Z,27.61
2016-06-24T08:56:59.038Z,27.8
2016-06-24T08:57:59.144Z,27.77
2016-06-24T08:58:59.154Z,27.77
2016-06-24T08:59:59.202Z,27.94
2016-06-24T09:00:59.333Z,27.92
2016-06-24T09:01:59.219Z,27.88
2016-06-24T09:02:59.241Z,27.98
2016-06-24T09:03:59.307Z,27.96
2016-06-24T09:04:59.376Z,28.09
2016-06-24T09:05:59.396Z,28.11
2016-06-24T09:06:59.646Z,28.04
2016-06-24T09:07:59.511Z,27.99
2016-06-24T09:08:59.737Z,28.04
2016-06-24T09:09:59.696Z,27.99
2016-06-24T09:10:59.706Z,28.01
2016-06-24T09:11:59.666Z,27.88
2016-06-24T09:12:59.744Z,27.85
2016-06-24T09:13:59.793Z,27.8
2016-06-24T09:14:59.892Z,27.84
2016-06-24T09:15:59.866Z,27.8
2016-06-24T09:16:59.897Z,27.88
2016-06-24T09:18:00.003Z,27.99
2016-06-24T09:19:00.031Z,27.95
2016-06-24T09:20:00.050Z,28.06
2016-06-24T09:21:00.195Z,28.16
2016-06-24T09:22:00.134Z,28.13
2016-06-24T09:23:00.326Z,28.13
2016-06-24T09:24:00.338Z,28.1
2016-06-24T09:25:00.417Z,28.11
2016-06-24T09:26:00.608Z,28.09
2016-06-24T09:27:00.524Z,28.11
2016-06-24T09:28:01.263Z,28.17
2016-06-24T09:29:00.699Z,28.16
2016-06-24T09:30:00.655Z,28.21
2016-06-24T09:31:00.745Z,28.25
2016-06-24T09:32:01.196Z,28.31
2016-06-24T09:33:00.935Z,28.28
2016-06-24T09:34:00.713Z,28.33
2016-06-24T09:35:00.917Z,28.35
2016-06-24T09:36:00.815Z,28.26
2016-06-24T09:37:01.084Z,28.38
2016-06-24T09:38:00.995Z,28.33
2016-06-24T09:39:01.067Z,28.46
2016-06-24T09:40:00.994Z,28.56
2016-06-24T09:41:01.220Z,28.6
2016-06-24T09:42:01.091Z,28.63
2016-06-24T09:43:01.209Z,28.68
2016-06-24T09:44:01.201Z,28.73
2016-06-24T09:45:01.250Z,28.72
2016-06-24T09:46:01.283Z,28.77
2016-06-24T09:47:01.405Z,28.82
2016-06-24T09:48:01.372Z,28.77
2016-06-24T09:49:02.051Z,28.72
2016-06-24T09:50:01.706Z,28.75
2016-06-24T09:51:01.509Z,28.7
2016-06-24T09:52:01.635Z,28.77
2016-06-24T09:53:01.755Z,28.85
2016-06-24T09:54:01.898Z,28.91
2016-06-24T09:55:01.803Z,28.97
2016-06-24T09:56:01.859Z,28.93
2016-06-24T09:57:01.805Z,29
2016-06-24T09:58:01.864Z,29.03
2016-06-24T09:59:01.955Z,29.19
2016-06-24T10:00:01.936Z,29.2
2016-06-24T10:01:02.309Z,29.25
2016-06-24T10:02:02.046Z,29.33
2016-06-24T10:03:02.228Z,29.29
2016-06-24T10:04:02.573Z,29.2
2016-06-24T10:05:02.199Z,29.25
2016-06-24T10:06:02.310Z,29.19
2016-06-24T10:07:02.355Z,29.23
2016-06-24T10:08:02.325Z,29.25
2016-06-24T10:09:02.430Z,29.19
2016-06-24T10:10:02.552Z,29.2
2016-06-24T10:11:02.553Z,29.26
2016-06-24T10:12:03.084Z,29.31
2016-06-24T10:13:02.605Z,29.29
2016-06-24T10:14:02.598Z,29.4
2016-06-24T10:15:02.746Z,29.37
2016-06-24T10:16:02.780Z,29.4
2016-06-24T10:17:02.827Z,29.62
2016-06-24T10:18:02.782Z,29.62
2016-06-24T10:19:02.947Z,29.62
2016-06-24T10:20:02.981Z,29.72
2016-06-24T10:21:02.947Z,29.65
2016-06-24T10:22:03.068Z,29.78
2016-06-24T10:23:03.145Z,29.79
2016-06-24T10:24:03.074Z,29.86
2016-06-24T10:25:03.360Z,29.89
2016-06-24T10:26:03.279Z,29.99
2016-06-24T10:27:03.323Z,30.09
2016-06-24T10:28:03.301Z,30.12
2016-06-24T10:29:03.306Z,30.09
2016-06-24T10:30:03.431Z,30.21
2016-06-24T10:31:03.525Z,30.33
2016-06-24T10:32:03.462Z,30.31
2016-06-24T10:33:03.618Z,30.36
2016-06-24T10:34:03.640Z,30.49
2016-06-24T10:35:03.624Z,30.5
2016-06-24T10:36:04.429Z,30.52
2016-06-24T10:37:03.735Z,30.62
2016-06-24T10:38:03.830Z,30.71
2016-06-24T10:39:03.789Z,30.78
2016-06-24T10:40:03.935Z,30.8
2016-06-24T10:41:03.939Z,30.94
2016-06-24T10:42:03.946Z,30.98
2016-06-24T10:43:04.079Z,30.99
2016-06-24T10:44:04.146Z,31.09
2016-06-24T10:45:04.221Z,31.26
2016-06-24T10:46:04.244Z,31.33
2016-06-24T10:47:04.190Z,31.26
2016-06-24T10:48:04.335Z,31.33
2016-06-24T10:49:04.295Z,31.31
2016-06-24T10:50:04.460Z,31.39
2016-06-24T10:51:04.501Z,31.5
2016-06-24T10:52:04.468Z,31.54
2016-06-24T10:53:04.515Z,31.6
2016-06-24T10:54:04.566Z,31.84
2016-06-24T10:55:04.712Z,31.88
2016-06-24T10:56:04.683Z,32.03
2016-06-24T10:57:04.739Z,32.27
2016-06-24T10:58:04.849Z,32.4
2016-06-24T10:59:04.836Z,32.67
2016-06-24T11:00:04.927Z,32.92
2016-06-24T11:01:05.039Z,33.15
2016-06-24T11:02:05.013Z,33.36
2016-06-24T11:03:05.160Z,33.82
2016-06-24T11:04:05.217Z,34.13
2016-06-24T11:05:05.234Z,34.58
2016-06-24T11:06:05.320Z,35.21
2016-06-24T11:07:05.421Z,35.69
2016-06-24T11:08:05.481Z,36.42
2016-06-24T11:09:05.443Z,37.07
2016-06-24T11:10:05.474Z,37.7
2016-06-24T11:11:05.582Z,38.46
2016-06-24T11:12:05.682Z,39.1
2016-06-24T11:13:05.670Z,39.77
2016-06-24T11:14:05.939Z,40.36
2016-06-24T11:15:05.808Z,40.79
2016-06-24T11:16:05.875Z,41.28
2016-06-24T11:17:06.004Z,41.75
2016-06-24T11:18:06.052Z,42.22
2016-06-24T11:19:06.122Z,42.65
2016-06-24T11:20:06.189Z,43.3
2016-06-24T11:21:06.289Z,43.58
2016-06-24T11:22:06.335Z,44.06
2016-06-24T11:23:06.298Z,44.33
2016-06-24T11:24:06.419Z,44.5
2016-06-24T11:25:06.465Z,44.72
2016-06-24T11:26:06.469Z,44.78
2016-06-24T11:27:06.614Z,45.11
2016-06-24T11:28:06.814Z,45.3
2016-06-24T11:29:06.743Z,45.42
2016-06-24T11:30:06.712Z,45.91
2016-06-24T11:31:06.839Z,46.23
2016-06-24T11:32:06.847Z,46.58
2016-06-24T11:33:06.962Z,46.57
2016-06-24T11:34:07.094Z,46.39
2016-06-24T11:35:07.026Z,46.5
2016-06-24T11:36:07.093Z,46.46
2016-06-24T11:37:07.165Z,46.45
2016-06-24T11:38:07.367Z,46.29
2016-06-24T11:39:07.303Z,46.44
2016-06-24T11:40:07.641Z,46.57
2016-06-24T11:41:07.707Z,47.09
2016-06-24T11:42:07.695Z,47.28
2016-06-24T11:43:07.688Z,47.47
2016-06-24T11:44:08.226Z,47.5
2016-06-24T11:45:07.966Z,47.3
2016-06-24T11:46:08.138Z,47.37
2016-06-24T11:47:08.378Z,47.37
2016-06-24T11:48:08.006Z,47.7
2016-06-24T11:49:08.090Z,48.17
2016-06-24T11:50:08.008Z,48.44
2016-06-24T11:51:08.212Z,48.59
2016-06-24T11:52:08.253Z,48.18
2016-06-24T11:53:08.195Z,47.93
2016-06-24T11:54:08.391Z,47.47
2016-06-24T11:55:08.453Z,47.18
2016-06-24T11:56:08.561Z,47.29
2016-06-24T11:57:08.597Z,46.98
2016-06-24T11:58:08.524Z,46.64
2016-06-24T11:59:08.724Z,46.41
2016-06-24T12:00:08.687Z,46.34
2016-06-24T12:01:09.048Z,46.15
2016-06-24T12:02:09.099Z,46.2
2016-06-24T12:03:08.920Z,46.26
2016-06-24T12:04:09.020Z,46.23
2016-06-24T12:05:09.150Z,46.18
2016-06-24T12:06:09.703Z,46.25
2016-06-24T12:07:09.140Z,46.39
2016-06-24T12:08:09.311Z,46.79
2016-06-24T12:09:09.398Z,47.18
2016-06-24T12:10:09.327Z,47.68
2016-06-24T12:11:09.383Z,48.03
2016-06-24T12:12:09.604Z,48.33
2016-06-24T12:13:09.563Z,48.82
2016-06-24T12:14:09.748Z,49.21
2016-06-24T12:15:09.791Z,49.39
2016-06-24T12:16:09.851Z,49.24
2016-06-24T12:17:09.799Z,49.47
2016-06-24T12:18:09.937Z,49.39
2016-06-24T12:19:10.086Z,49.45
2016-06-24T12:20:10.121Z,49.28
2016-06-24T12:21:10.098Z,49.19
2016-06-24T12:22:10.119Z,48.91
2016-06-24T12:23:10.718Z,48.47
2016-06-24T12:24:10.254Z,48.13
2016-06-24T12:25:10.450Z,48.02
2016-06-24T12:26:10.525Z,48.12
2016-06-24T12:27:10.597Z,48.39
2016-06-24T12:28:10.544Z,48.61
2016-06-24T12:29:10.575Z,49.04
2016-06-24T12:30:10.786Z,49.42
2016-06-24T12:31:10.850Z,49.64
2016-06-24T12:32:10.779Z,49.67
2016-06-24T12:33:10.846Z,49.58
2016-06-24T12:34:10.916Z,49.64
2016-06-24T12:35:11.146Z,49.81
2016-06-24T12:36:11.281Z,49.71
2016-06-24T12:37:11.126Z,49.51
2016-06-24T12:38:11.321Z,49.42
2016-06-24T12:39:11.261Z,49.19
2016-06-24T12:40:11.307Z,49.19
2016-06-24T12:41:11.389Z,49.24
2016-06-24T12:42:11.607Z,49.33
2016-06-24T12:43:11.648Z,49.62
2016-06-24T12:44:11.709Z,50.04
2016-06-24T12:45:11.645Z,50.24
2016-06-24T12:46:11.841Z,50.49
2016-06-24T12:47:11.786Z,50.55
2016-06-24T12:48:11.841Z,50.75
2016-06-24T12:49:11.957Z,50.77
2016-06-24T12:50:12.115Z,50.69
2016-06-24T12:51:12.323Z,50.31
2016-06-24T12:52:12.238Z,49.92
2016-06-24T12:53:12.314Z,49.71
2016-06-24T12:54:12.389Z,49.5
2016-06-24T12:55:12.327Z,49.31
2016-06-24T12:56:12.508Z,49.16